createdAt,value
2023-05-08T00:00:13.241Z,17.60
2023-05-08T00:02:42.343Z,18.27
2023-05-08T00:05:09.272Z,17.80
2023-05-08T00:07:37.552Z,19.03
2023-05-08T00:10:08.417Z,19.53
2023-05-08T00:12:35.459Z,18.30
2023-05-08T00:15:03.439Z,18.70
2023-05-08T00:17:30.579Z,19.60
2023-05-08T00:19:57.304Z,18.83
2023-05-08T00:22:24.085Z,18.80
2023-05-08T00:24:50.813Z,17.50
2023-05-08T00:27:17.735Z,19.27
2023-05-08T00:29:44.488Z,19.33
2023-05-08T00:32:11.346Z,17.87
2023-05-08T00:34:38.187Z,21.47
2023-05-08T00:37:04.947Z,18.67
2023-05-08T00:39:32.076Z,19.63
2023-05-08T00:41:58.891Z,17.97
2023-05-08T00:44:25.696Z,17.90
2023-05-08T00:46:52.565Z,23.40
2023-05-08T00:49:19.432Z,17.60
2023-05-08T00:51:48.106Z,17.40
2023-05-08T00:54:15.744Z,18.90
2023-05-08T00:56:43.719Z,18.50
2023-05-08T00:59:14.209Z,18.53
2023-05-08T01:01:42.261Z,17.80
2023-05-08T01:04:09.313Z,16.53
2023-05-08T01:06:37.208Z,19.57
2023-05-08T01:09:04.299Z,18.23
2023-05-08T01:11:36.843Z,20.23
2023-05-08T01:14:44.544Z,18.43
2023-05-08T01:17:15.361Z,18.40
2023-05-08T01:20:10.155Z,18.47
2023-05-08T01:22:46.029Z,17.87
2023-05-08T01:25:40.511Z,17.30
2023-05-08T01:28:22.409Z,18.43
2023-05-08T01:31:12.208Z,14.57
2023-05-08T01:33:56.704Z,12.40
2023-05-08T01:36:27.216Z,14.40
2023-05-08T01:39:20.342Z,14.97
2023-05-08T01:41:57.236Z,15.73
2023-05-08T01:44:28.689Z,17.17
2023-05-08T01:46:55.973Z,18.23
2023-05-08T01:49:26.890Z,18.27
2023-05-08T01:52:03.055Z,18.80
2023-05-08T01:54:41.008Z,19.83
2023-05-08T01:57:10.855Z,20.60
2023-05-08T01:59:41.344Z,24.73
2023-05-08T02:02:10.352Z,19.40
2023-05-08T02:04:38.566Z,20.00
2023-05-08T02:07:05.989Z,22.37
2023-05-08T02:09:33.025Z,19.50
2023-05-08T02:12:01.162Z,18.23
2023-05-08T02:14:29.659Z,17.67
2023-05-08T02:16:58.433Z,19.37
2023-05-08T02:19:27.014Z,18.67
2023-05-08T02:21:55.374Z,18.43
2023-05-08T02:24:24.117Z,18.30
2023-05-08T02:26:54.392Z,19.70
2023-05-08T02:29:22.926Z,19.77
2023-05-08T02:31:51.211Z,19.50
2023-05-08T02:34:19.531Z,18.60
2023-05-08T02:36:46.905Z,18.23
2023-05-08T02:39:15.408Z,22.43
2023-05-08T02:41:42.444Z,17.50
2023-05-08T02:44:09.809Z,18.07
2023-05-08T02:46:36.569Z,19.40
2023-05-08T02:49:26.686Z,19.70
2023-05-08T02:52:20.609Z,19.03
2023-05-08T02:55:00.027Z,20.00
2023-05-08T02:57:51.199Z,19.83
2023-05-08T03:00:33.289Z,19.37
2023-05-08T03:03:11.954Z,17.90
2023-05-08T03:05:43.097Z,19.73
2023-05-08T03:08:18.400Z,18.47
2023-05-08T03:10:49.255Z,18.67
2023-05-08T03:13:18.610Z,17.40
2023-05-08T03:15:56.207Z,18.03
2023-05-08T03:18:46.405Z,21.13
2023-05-08T03:21:15.559Z,17.40
2023-05-08T03:23:43.449Z,17.83
2023-05-08T03:26:10.566Z,18.90
2023-05-08T03:28:39.160Z,18.80
2023-05-08T03:31:06.891Z,18.80
2023-05-08T03:33:37.106Z,17.87
2023-05-08T03:36:04.196Z,17.60
2023-05-08T03:38:31.260Z,18.37
2023-05-08T03:40:59.589Z,18.80
2023-05-08T03:43:26.955Z,18.00
2023-05-08T03:45:55.509Z,17.57
2023-05-08T03:48:23.248Z,17.80
2023-05-08T03:50:50.878Z,17.53
2023-05-08T03:53:17.790Z,20.70
2023-05-08T03:55:44.617Z,18.03
2023-05-08T03:58:14.108Z,19.07
2023-05-08T04:01:04.293Z,17.17
2023-05-08T04:03:46.323Z,18.17
2023-05-08T04:06:28.677Z,17.10
2023-05-08T04:09:02.743Z,17.57
2023-05-08T04:11:42.574Z,18.80
2023-05-08T04:14:15.798Z,17.90
2023-05-08T04:16:49.902Z,17.00
2023-05-08T04:19:23.398Z,20.80
2023-05-08T04:21:51.520Z,19.33
2023-05-08T04:24:20.779Z,18.47
2023-05-08T04:26:48.302Z,24.23
2023-05-08T04:29:15.715Z,17.40
2023-05-08T04:31:42.763Z,17.47
2023-05-08T04:34:09.876Z,21.20
2023-05-08T04:36:37.622Z,18.77
2023-05-08T04:39:05.158Z,17.33
2023-05-08T04:41:32.391Z,15.90
2023-05-08T04:43:59.316Z,17.17
2023-05-08T04:46:26.242Z,17.93
2023-05-08T04:48:53.025Z,21.67
2023-05-08T04:51:19.866Z,21.30
2023-05-08T04:53:46.620Z,23.97
2023-05-08T04:56:13.417Z,26.17
2023-05-08T04:58:40.302Z,24.07
2023-05-08T05:01:07.160Z,21.10
2023-05-08T05:03:34.034Z,19.20
2023-05-08T05:06:01.821Z,18.70
2023-05-08T05:08:29.063Z,20.20
2023-05-08T05:10:55.849Z,20.90
2023-05-08T05:13:22.738Z,20.20
2023-05-08T05:15:51.450Z,23.07
2023-05-08T05:18:18.475Z,25.70
2023-05-08T05:20:46.060Z,18.83
2023-05-08T05:23:12.908Z,21.17
2023-05-08T05:25:39.757Z,18.13
2023-05-08T05:28:06.550Z,19.00
2023-05-08T05:30:34.102Z,18.63
2023-05-08T05:33:00.875Z,20.43
2023-05-08T05:35:27.674Z,20.73
2023-05-08T05:37:54.444Z,21.50
2023-05-08T05:40:21.373Z,22.00
2023-05-08T05:42:51.459Z,19.83
2023-05-08T05:45:18.524Z,20.33
2023-05-08T05:47:50.139Z,19.57
2023-05-08T05:50:18.634Z,22.03
2023-05-08T05:52:45.675Z,20.53
2023-05-08T05:55:13.103Z,21.13
2023-05-08T05:57:40.547Z,20.00
2023-05-08T06:00:08.245Z,20.73
2023-05-08T06:02:36.733Z,21.93
2023-05-08T06:05:04.892Z,21.10
2023-05-08T06:07:31.633Z,21.40
2023-05-08T06:09:58.369Z,20.97
2023-05-08T06:12:25.559Z,20.63
2023-05-08T06:14:52.822Z,20.50
2023-05-08T06:17:19.673Z,21.73
2023-05-08T06:19:54.115Z,18.97
2023-05-08T06:22:24.390Z,16.97
2023-05-08T06:24:54.659Z,17.53
2023-05-08T06:27:22.598Z,18.37
2023-05-08T06:29:53.413Z,17.23
2023-05-08T06:32:21.087Z,15.73
2023-05-08T06:34:48.443Z,14.53
2023-05-08T06:37:15.476Z,14.43
2023-05-08T06:39:42.488Z,15.03
2023-05-08T06:42:09.628Z,17.83
2023-05-08T06:44:36.466Z,14.30
2023-05-08T06:47:03.560Z,14.07
2023-05-08T06:49:30.678Z,11.17
2023-05-08T06:51:58.141Z,11.03
2023-05-08T06:54:25.349Z,11.63
2023-05-08T06:56:54.261Z,10.87
2023-05-08T06:59:23.223Z,12.23
2023-05-08T07:01:50.605Z,10.80
2023-05-08T07:04:17.496Z,11.70
2023-05-08T07:06:44.340Z,11.10
2023-05-08T07:09:12.106Z,11.77
2023-05-08T07:11:39.004Z,10.27
2023-05-08T07:14:05.715Z,9.80
2023-05-08T07:16:32.681Z,10.53
2023-05-08T07:18:59.531Z,11.33
2023-05-08T07:21:26.567Z,12.93
2023-05-08T07:23:54.575Z,10.13
2023-05-08T07:26:22.467Z,9.63
2023-05-08T07:28:50.812Z,13.77
2023-05-08T07:31:17.683Z,8.90
2023-05-08T07:33:44.584Z,10.17
2023-05-08T07:36:11.646Z,10.90
2023-05-08T07:38:41.401Z,8.23
2023-05-08T07:41:08.375Z,10.73
2023-05-08T07:43:35.244Z,8.80
2023-05-08T07:46:02.021Z,10.80
2023-05-08T07:48:28.857Z,9.50
2023-05-08T07:50:55.672Z,9.60
2023-05-08T07:53:22.400Z,8.37
2023-05-08T07:55:49.113Z,10.03
2023-05-08T07:58:15.897Z,7.83
2023-05-08T08:00:42.762Z,9.57
2023-05-08T08:03:09.657Z,7.63
2023-05-08T08:05:36.466Z,7.77
2023-05-08T08:08:03.344Z,7.20
2023-05-08T08:10:31.477Z,7.50
2023-05-08T08:12:58.324Z,9.50
2023-05-08T08:15:25.110Z,7.93
2023-05-08T08:17:52.056Z,9.67
2023-05-08T08:20:19.105Z,8.97
2023-05-08T08:22:46.034Z,10.03
2023-05-08T08:25:13.179Z,10.60
2023-05-08T08:27:40.215Z,11.60
2023-05-08T08:30:16.911Z,10.17
2023-05-08T08:32:44.325Z,9.57
2023-05-08T08:35:11.581Z,10.17
2023-05-08T08:37:38.613Z,9.00
2023-05-08T08:40:06.120Z,11.97
2023-05-08T08:42:32.901Z,8.60
2023-05-08T08:45:00.576Z,10.77
2023-05-08T08:47:29.838Z,8.50
2023-05-08T08:50:00.572Z,10.90
2023-05-08T08:53:03.220Z,7.57
2023-05-08T08:55:31.212Z,11.57
2023-05-08T08:58:07.462Z,7.63
2023-05-08T09:00:37.265Z,7.40
2023-05-08T09:03:07.873Z,9.20
2023-05-08T09:05:35.788Z,7.37
2023-05-08T09:08:03.194Z,8.10
2023-05-08T09:10:30.118Z,7.03
2023-05-08T09:12:57.019Z,7.93
2023-05-08T09:15:23.737Z,6.20
2023-05-08T09:17:50.632Z,6.10
2023-05-08T09:20:17.526Z,5.63
2023-05-08T09:22:44.586Z,7.10
2023-05-08T09:25:11.661Z,5.60
2023-05-08T09:27:38.708Z,5.90
2023-05-08T09:30:14.199Z,5.93
2023-05-08T09:32:43.002Z,8.40
2023-05-08T09:35:11.644Z,5.60
2023-05-08T09:37:46.506Z,10.07
2023-05-08T09:40:21.731Z,5.53
2023-05-08T09:42:50.227Z,5.23
2023-05-08T09:45:28.300Z,6.50
2023-05-08T09:47:55.355Z,4.07
2023-05-08T09:50:22.241Z,3.50
2023-05-08T09:52:50.836Z,5.10
2023-05-08T09:55:18.339Z,10.93
2023-05-08T09:58:00.526Z,6.10
2023-05-08T10:00:29.417Z,4.60
2023-05-08T10:03:03.220Z,4.10
2023-05-08T10:05:32.631Z,9.63
2023-05-08T10:08:20.086Z,6.13
2023-05-08T10:10:47.404Z,8.37
2023-05-08T10:13:14.306Z,4.07
2023-05-08T10:15:45.028Z,3.97
2023-05-08T10:18:13.128Z,4.00
2023-05-08T10:20:41.876Z,3.90
2023-05-08T10:23:11.453Z,4.30
2023-05-08T10:25:45.399Z,4.40
2023-05-08T10:28:32.823Z,3.80
2023-05-08T10:31:03.969Z,5.30
2023-05-08T10:33:34.157Z,4.37
2023-05-08T10:36:01.085Z,9.40
2023-05-08T10:38:31.057Z,3.50
2023-05-08T10:41:01.403Z,3.87
2023-05-08T10:43:30.390Z,3.30
2023-05-08T10:45:58.754Z,2.90
2023-05-08T10:48:28.344Z,4.13
2023-05-08T10:51:25.932Z,3.30
2023-05-08T10:54:02.192Z,3.60
2023-05-08T10:56:29.408Z,4.00
2023-05-08T10:58:59.415Z,3.23
2023-05-08T11:01:26.885Z,4.30
2023-05-08T11:03:55.857Z,4.90
2023-05-08T11:06:49.293Z,4.10
2023-05-08T11:09:22.075Z,5.63
2023-05-08T11:12:01.880Z,2.90
2023-05-08T11:14:29.596Z,3.57
2023-05-08T11:17:02.058Z,3.60
2023-05-08T11:19:29.079Z,3.40
2023-05-08T11:22:13.922Z,4.70
2023-05-08T11:25:02.375Z,3.33
2023-05-08T11:28:06.759Z,2.83
2023-05-08T11:30:34.792Z,3.27
2023-05-08T11:33:05.096Z,3.50
2023-05-08T11:35:55.469Z,4.80
2023-05-08T11:38:28.509Z,3.37
2023-05-08T11:40:59.445Z,4.17
2023-05-08T11:43:27.199Z,2.93
2023-05-08T11:45:55.031Z,3.97
2023-05-08T11:48:21.735Z,8.73
2023-05-08T11:50:49.618Z,3.63
2023-05-08T11:53:16.568Z,4.10
2023-05-08T11:55:43.912Z,7.63
2023-05-08T11:58:14.393Z,4.10
2023-05-08T12:00:45.409Z,7.50
2023-05-08T12:03:13.862Z,4.57
2023-05-08T12:05:41.027Z,4.10
2023-05-08T12:08:09.056Z,5.80
2023-05-08T12:10:53.668Z,3.87
2023-05-08T12:13:21.560Z,5.00
2023-05-08T12:15:57.246Z,6.93
2023-05-08T12:18:25.290Z,4.33
2023-05-08T12:20:53.420Z,4.63
2023-05-08T12:23:20.956Z,3.90
2023-05-08T12:25:47.787Z,3.97
2023-05-08T12:28:15.668Z,3.93
2023-05-08T12:30:42.593Z,5.40
2023-05-08T12:33:11.100Z,3.73
2023-05-08T12:35:39.343Z,2.97
2023-05-08T12:38:08.152Z,4.10
2023-05-08T12:40:42.901Z,4.60
2023-05-08T12:43:11.411Z,4.20
2023-05-08T12:45:40.576Z,5.73
2023-05-08T12:48:12.598Z,3.80
2023-05-08T12:50:44.896Z,4.20
2023-05-08T12:53:14.318Z,4.20
2023-05-08T12:55:53.469Z,5.00
2023-05-08T12:58:23.995Z,4.90
2023-05-08T13:00:52.370Z,4.40
2023-05-08T13:03:28.052Z,4.43
2023-05-08T13:05:57.836Z,8.07
2023-05-08T13:08:55.194Z,5.10
2023-05-08T13:11:33.236Z,6.13
2023-05-08T13:14:00.453Z,5.90
2023-05-08T13:16:27.399Z,4.93
2023-05-08T13:18:54.169Z,5.20
2023-05-08T13:21:21.123Z,4.90
2023-05-08T13:23:47.901Z,5.10
2023-05-08T13:26:14.614Z,6.77
2023-05-08T13:28:41.373Z,6.17
2023-05-08T13:31:08.079Z,7.40
2023-05-08T13:33:35.249Z,6.67
2023-05-08T13:36:02.088Z,5.93
2023-05-08T13:38:28.908Z,6.00
2023-05-08T13:40:55.684Z,6.20
2023-05-08T13:43:22.381Z,4.90
2023-05-08T13:45:49.208Z,5.83
2023-05-08T13:48:16.000Z,5.77
2023-05-08T13:50:43.156Z,23.60
2023-05-08T13:53:09.934Z,5.80
2023-05-08T13:55:37.029Z,5.03
2023-05-08T13:58:03.816Z,5.40
2023-05-08T14:00:30.624Z,5.97
2023-05-08T14:02:57.478Z,4.70
2023-05-08T14:05:24.293Z,4.93
2023-05-08T14:07:51.062Z,5.50
2023-05-08T14:10:17.811Z,5.33
2023-05-08T14:12:44.793Z,5.07
2023-05-08T14:15:12.254Z,6.40
2023-05-08T14:17:39.468Z,4.50
2023-05-08T14:20:06.841Z,4.80
2023-05-08T14:22:33.613Z,6.33
2023-05-08T14:25:00.430Z,5.20
2023-05-08T14:27:27.323Z,5.07
2023-05-08T14:29:55.672Z,5.47
2023-05-08T14:32:22.528Z,5.10
2023-05-08T14:34:49.296Z,5.57
2023-05-08T14:37:17.617Z,8.50
2023-05-08T14:39:45.534Z,5.30
2023-05-08T14:44:42.051Z,5.70
2023-05-08T14:47:09.407Z,6.93
2023-05-08T14:49:38.422Z,5.70
2023-05-08T14:52:06.713Z,6.13
2023-05-08T14:54:33.806Z,5.57
2023-05-08T14:57:00.798Z,8.37
2023-05-08T14:59:27.652Z,5.30
2023-05-08T15:01:54.508Z,7.23
2023-05-08T15:04:21.500Z,5.37
2023-05-08T15:06:48.475Z,5.97
2023-05-08T15:09:16.489Z,5.30
2023-05-08T15:11:43.632Z,5.00
2023-05-08T15:14:10.492Z,7.87
2023-05-08T15:16:37.401Z,5.10
2023-05-08T15:19:04.286Z,5.03
2023-05-08T15:21:31.180Z,5.47
2023-05-08T15:23:57.996Z,7.63
2023-05-08T15:26:24.831Z,5.37
2023-05-08T15:28:51.748Z,4.87
2023-05-08T15:31:18.775Z,4.80
2023-05-08T15:33:46.048Z,5.20
2023-05-08T15:36:13.672Z,5.67
2023-05-08T15:38:41.366Z,5.70
2023-05-08T15:41:14.768Z,5.70
2023-05-08T15:43:42.961Z,7.70
2023-05-08T15:46:09.980Z,7.90
2023-05-08T15:48:36.912Z,5.07
2023-05-08T15:51:03.751Z,5.63
2023-05-08T15:53:30.577Z,5.70
2023-05-08T15:55:57.555Z,5.90
2023-05-08T15:58:24.558Z,4.40
2023-05-08T16:00:51.753Z,5.20
2023-05-08T16:03:19.083Z,5.77
2023-05-08T16:05:46.139Z,7.10
2023-05-08T16:08:13.730Z,5.10
2023-05-08T16:10:41.383Z,4.37
2023-05-08T16:13:08.765Z,5.20
2023-05-08T16:15:35.654Z,5.87
2023-05-08T16:18:02.993Z,5.10
2023-05-08T16:20:30.517Z,5.73
2023-05-08T16:22:58.465Z,5.27
2023-05-08T16:25:25.579Z,5.00
2023-05-08T16:27:52.655Z,5.10
2023-05-08T16:30:19.573Z,4.43
2023-05-08T16:32:46.605Z,5.27
2023-05-08T16:35:14.203Z,4.87
2023-05-08T16:37:41.392Z,4.90
2023-05-08T16:40:08.812Z,4.23
2023-05-08T16:42:37.000Z,6.27
2023-05-08T16:45:08.139Z,5.30
2023-05-08T16:47:36.046Z,7.23
2023-05-08T16:50:04.060Z,5.03
2023-05-08T16:52:32.683Z,5.57
2023-05-08T16:54:59.480Z,5.77
2023-05-08T16:57:27.512Z,5.80
2023-05-08T16:59:54.374Z,4.83
2023-05-08T17:02:21.975Z,5.40
2023-05-08T17:04:49.762Z,5.90
2023-05-08T17:07:17.523Z,5.67
2023-05-08T17:09:44.864Z,5.77
2023-05-08T17:12:11.785Z,6.17
2023-05-08T17:14:40.294Z,6.20
2023-05-08T17:17:07.400Z,5.83
2023-05-08T17:19:34.342Z,7.07
2023-05-08T17:22:01.399Z,5.70
2023-05-08T17:24:30.402Z,6.07
2023-05-08T17:26:57.336Z,6.67
2023-05-08T17:29:24.539Z,5.80
2023-05-08T17:31:51.380Z,5.90
2023-05-08T17:34:18.160Z,6.70
2023-05-08T17:36:44.951Z,6.80
2023-05-08T17:39:12.518Z,6.73
2023-05-08T17:41:39.337Z,6.60
2023-05-08T17:44:07.027Z,8.50
2023-05-08T17:46:33.817Z,7.10
2023-05-08T17:49:00.669Z,6.13
2023-05-08T17:51:27.459Z,6.30
2023-05-08T17:53:56.045Z,5.70
2023-05-08T17:56:23.382Z,6.00
2023-05-08T17:58:52.371Z,8.40
2023-05-08T18:01:20.350Z,6.40
2023-05-08T18:03:50.267Z,6.37
2023-05-08T18:06:18.303Z,7.53
2023-05-08T18:08:45.939Z,7.80
2023-05-08T18:11:17.205Z,5.97
2023-05-08T18:13:43.977Z,7.13
2023-05-08T18:16:13.243Z,5.50
2023-05-08T18:18:40.168Z,6.53
2023-05-08T18:21:07.091Z,5.60
2023-05-08T18:23:34.159Z,7.00
2023-05-08T18:26:01.054Z,5.90
2023-05-08T18:28:28.250Z,5.33
2023-05-08T18:30:55.436Z,6.33
2023-05-08T18:33:22.381Z,4.63
2023-05-08T18:35:49.326Z,6.70
2023-05-08T18:38:17.586Z,7.27
2023-05-08T18:40:45.484Z,4.87
2023-05-08T18:43:12.318Z,6.10
2023-05-08T18:45:40.302Z,8.67
2023-05-08T18:48:10.767Z,5.27
2023-05-08T18:50:37.794Z,5.70
2023-05-08T18:53:04.683Z,5.00
2023-05-08T18:55:31.464Z,8.43
2023-05-08T18:57:58.391Z,4.50
2023-05-08T19:00:25.415Z,4.17
2023-05-08T19:02:52.346Z,5.27
2023-05-08T19:05:19.258Z,4.20
2023-05-08T19:07:46.119Z,5.67
2023-05-08T19:10:13.446Z,5.43
2023-05-08T19:12:40.622Z,4.77
2023-05-08T19:15:09.370Z,3.80
2023-05-08T19:17:37.044Z,4.40
2023-05-08T19:20:04.576Z,4.90
2023-05-08T19:22:33.774Z,4.43
2023-05-08T19:25:02.278Z,5.23
2023-05-08T19:27:29.212Z,5.07
2023-05-08T19:29:56.305Z,4.57
2023-05-08T19:32:23.267Z,4.23
2023-05-08T19:34:50.186Z,4.33
2023-05-08T19:37:16.993Z,4.43
2023-05-08T19:39:43.910Z,4.93
2023-05-08T19:42:13.719Z,4.30
2023-05-08T19:44:40.645Z,3.70
2023-05-08T19:47:07.667Z,4.70
2023-05-08T19:49:34.437Z,3.97
2023-05-08T19:52:01.218Z,5.40
2023-05-08T19:54:29.268Z,7.83
2023-05-08T19:56:56.197Z,6.77
2023-05-08T19:59:23.047Z,5.93
2023-05-08T20:01:53.704Z,4.40
2023-05-08T20:04:20.764Z,4.10
2023-05-08T20:06:47.575Z,5.10
2023-05-08T20:09:14.282Z,4.43
2023-05-08T20:11:41.052Z,5.33
2023-05-08T20:14:07.772Z,4.57
2023-05-08T20:16:34.578Z,3.73
2023-05-08T20:19:01.767Z,4.97
2023-05-08T20:21:33.846Z,5.87
2023-05-08T20:24:01.171Z,4.67
2023-05-08T20:26:29.426Z,5.40
2023-05-08T20:28:56.907Z,5.00
2023-05-08T20:31:25.765Z,4.70
2023-05-08T20:33:52.912Z,4.90
2023-05-08T20:36:20.333Z,4.37
2023-05-08T20:38:47.240Z,4.70
2023-05-08T20:41:14.091Z,7.30
2023-05-08T20:43:41.019Z,4.53
2023-05-08T20:46:08.228Z,8.00
2023-05-08T20:48:35.237Z,6.60
2023-05-08T20:51:04.568Z,4.83
2023-05-08T20:53:32.125Z,4.73
2023-05-08T20:56:03.485Z,4.90
2023-05-08T20:58:30.462Z,6.00
2023-05-08T21:00:57.646Z,4.87
2023-05-08T21:03:24.528Z,5.30
2023-05-08T21:05:51.845Z,4.37
2023-05-08T21:08:23.030Z,4.43
2023-05-08T21:10:50.689Z,4.23
2023-05-08T21:13:17.875Z,5.23
2023-05-08T21:15:44.959Z,5.77
2023-05-08T21:18:12.003Z,4.57
2023-05-08T21:20:38.997Z,5.23
2023-05-08T21:23:05.825Z,5.50
2023-05-08T21:25:32.734Z,5.10
2023-05-08T21:27:59.561Z,5.90
2023-05-08T21:30:26.333Z,5.90
2023-05-08T21:32:53.170Z,7.83
2023-05-08T21:35:20.210Z,5.80
2023-05-08T21:37:46.995Z,5.97
2023-05-08T21:40:13.838Z,5.87
2023-05-08T21:42:40.788Z,6.10
2023-05-08T21:45:07.951Z,6.70
2023-05-08T21:47:34.757Z,5.30
2023-05-08T21:50:01.562Z,6.17
2023-05-08T21:52:28.354Z,6.70
2023-05-08T21:54:55.108Z,5.13
2023-05-08T21:57:21.901Z,5.90
2023-05-08T21:59:51.746Z,5.70
2023-05-08T22:02:19.981Z,7.97
2023-05-08T22:04:46.816Z,11.07
2023-05-08T22:07:13.699Z,6.60
2023-05-08T22:09:40.576Z,5.87
2023-05-08T22:12:08.354Z,7.60
2023-05-08T22:14:35.207Z,7.00
2023-05-08T22:17:02.125Z,6.90
2023-05-08T22:19:29.081Z,6.13
2023-05-08T22:21:58.882Z,6.20
2023-05-08T22:24:26.342Z,6.27
2023-05-08T22:26:53.126Z,6.57
2023-05-08T22:29:19.840Z,8.50
2023-05-08T22:31:47.822Z,7.60
2023-05-08T22:34:15.028Z,7.10
2023-05-08T22:36:41.959Z,11.20
2023-05-08T22:39:13.099Z,7.53
2023-05-08T22:41:40.035Z,7.93
2023-05-08T22:44:07.296Z,7.77
2023-05-08T22:46:35.352Z,7.47
2023-05-08T22:49:02.737Z,8.17
2023-05-08T22:51:30.411Z,8.97
2023-05-08T22:53:57.218Z,8.43
2023-05-08T22:56:24.050Z,9.33
2023-05-08T22:58:50.849Z,8.53
2023-05-08T23:01:17.866Z,8.10
2023-05-08T23:03:44.655Z,9.63
2023-05-08T23:06:11.432Z,9.43
2023-05-08T23:08:38.180Z,12.00
2023-05-08T23:11:05.321Z,8.87
2023-05-08T23:13:33.454Z,8.80
2023-05-08T23:16:00.375Z,8.40
2023-05-08T23:18:27.188Z,8.07
2023-05-08T23:20:53.952Z,9.80
2023-05-08T23:23:20.789Z,8.90
2023-05-08T23:25:47.555Z,9.50
2023-05-08T23:28:14.358Z,8.53
2023-05-08T23:30:41.128Z,9.13
2023-05-08T23:33:08.563Z,10.33
2023-05-08T23:35:35.352Z,8.13
2023-05-08T23:38:02.109Z,8.10
2023-05-08T23:40:28.949Z,8.57
2023-05-08T23:42:56.119Z,9.10
2023-05-08T23:45:22.872Z,9.00
2023-05-08T23:47:49.670Z,9.30
2023-05-08T23:50:16.588Z,9.40
2023-05-08T23:52:43.376Z,9.17
2023-05-08T23:55:10.414Z,9.43
2023-05-08T23:57:37.190Z,9.23
